sensor_id;sensor_type;location;lat;lon;timestamp;P1;durP1;ratioP1;P2;durP2;ratioP2
34765;SDS011;20984;43.508;1.504;2022-07-29T00:00:06;5.38;;;2.17;;
34765;SDS011;20984;43.508;1.504;2022-07-29T00:02:33;3.63;;;2.28;;
34765;SDS011;20984;43.508;1.504;2022-07-29T00:04:59;4.82;;;2.45;;
34765;SDS011;20984;43.508;1.504;2022-07-29T00:07:26;8.02;;;2.25;;
34765;SDS011;20984;43.508;1.504;2022-07-29T00:09:52;3.72;;;2.33;;
34765;SDS011;20984;43.508;1.504;2022-07-29T00:12:19;5.40;;;3.03;;
34765;SDS011;20984;43.508;1.504;2022-07-29T00:14:45;4.13;;;2.38;;
34765;SDS011;20984;43.508;1.504;2022-07-29T00:17:11;5.18;;;2.45;;
34765;SDS011;20984;43.508;1.504;2022-07-29T00:19:37;6.93;;;2.42;;
34765;SDS011;20984;43.508;1.504;2022-07-29T00:22:03;5.55;;;1.90;;
34765;SDS011;20984;43.508;1.504;2022-07-29T00:24:29;3.13;;;1.98;;
34765;SDS011;20984;43.508;1.504;2022-07-29T00:26:55;6.03;;;2.20;;
34765;SDS011;20984;43.508;1.504;2022-07-29T00:29:20;3.10;;;2.10;;
34765;SDS011;20984;43.508;1.504;2022-07-29T00:31:46;5.40;;;2.50;;
34765;SDS011;20984;43.508;1.504;2022-07-29T00:34:12;3.83;;;2.10;;
34765;SDS011;20984;43.508;1.504;2022-07-29T00:36:57;4.90;;;2.35;;
34765;SDS011;20984;43.508;1.504;2022-07-29T00:39:22;2.33;;;1.80;;
34765;SDS011;20984;43.508;1.504;2022-07-29T00:41:48;4.45;;;3.08;;
34765;SDS011;20984;43.508;1.504;2022-07-29T00:44:15;4.22;;;2.33;;
34765;SDS011;20984;43.508;1.504;2022-07-29T00:46:41;5.35;;;2.50;;
34765;SDS011;20984;43.508;1.504;2022-07-29T00:49:07;11.02;;;2.97;;
34765;SDS011;20984;43.508;1.504;2022-07-29T00:51:37;4.85;;;2.42;;
34765;SDS011;20984;43.508;1.504;2022-07-29T00:54:03;7.57;;;2.67;;
34765;SDS011;20984;43.508;1.504;2022-07-29T00:56:30;5.50;;;2.65;;
34765;SDS011;20984;43.508;1.504;2022-07-29T00:58:58;4.80;;;2.22;;
34765;SDS011;20984;43.508;1.504;2022-07-29T01:01:24;6.22;;;2.70;;
34765;SDS011;20984;43.508;1.504;2022-07-29T01:03:51;3.80;;;1.88;;
34765;SDS011;20984;43.508;1.504;2022-07-29T01:06:17;5.63;;;2.30;;
34765;SDS011;20984;43.508;1.504;2022-07-29T01:08:44;7.97;;;2.30;;
34765;SDS011;20984;43.508;1.504;2022-07-29T01:11:12;3.10;;;2.20;;
34765;SDS011;20984;43.508;1.504;2022-07-29T01:13:39;7.47;;;2.45;;
34765;SDS011;20984;43.508;1.504;2022-07-29T01:22:25;9.13;;;2.47;;
34765;SDS011;20984;43.508;1.504;2022-07-29T01:25:05;5.85;;;2.70;;
34765;SDS011;20984;43.508;1.504;2022-07-29T01:31:00;5.30;;;2.30;;
34765;SDS011;20984;43.508;1.504;2022-07-29T01:33:29;4.20;;;2.47;;
34765;SDS011;20984;43.508;1.504;2022-07-29T01:36:14;4.43;;;2.40;;
34765;SDS011;20984;43.508;1.504;2022-07-29T01:38:53;4.63;;;2.33;;
34765;SDS011;20984;43.508;1.504;2022-07-29T01:41:24;3.45;;;2.20;;
34765;SDS011;20984;43.508;1.504;2022-07-29T01:43:57;4.22;;;2.63;;
34765;SDS011;20984;43.508;1.504;2022-07-29T01:46:31;6.32;;;2.55;;
34765;SDS011;20984;43.508;1.504;2022-07-29T01:49:10;5.75;;;2.58;;
34765;SDS011;20984;43.508;1.504;2022-07-29T01:51:51;5.18;;;2.58;;
34765;SDS011;20984;43.508;1.504;2022-07-29T01:54:41;3.53;;;2.53;;
34765;SDS011;20984;43.508;1.504;2022-07-29T01:57:14;3.65;;;2.20;;
34765;SDS011;20984;43.508;1.504;2022-07-29T01:59:45;4.40;;;2.50;;
34765;SDS011;20984;43.508;1.504;2022-07-29T02:02:13;7.75;;;2.92;;
34765;SDS011;20984;43.508;1.504;2022-07-29T02:04:41;4.35;;;2.35;;
34765;SDS011;20984;43.508;1.504;2022-07-29T02:07:10;3.97;;;2.20;;
34765;SDS011;20984;43.508;1.504;2022-07-29T02:09:40;8.30;;;2.53;;
34765;SDS011;20984;43.508;1.504;2022-07-29T02:12:07;6.50;;;2.55;;
34765;SDS011;20984;43.508;1.504;2022-07-29T02:14:36;4.38;;;2.15;;
34765;SDS011;20984;43.508;1.504;2022-07-29T02:17:05;3.53;;;2.42;;
34765;SDS011;20984;43.508;1.504;2022-07-29T02:19:32;5.47;;;2.97;;
34765;SDS011;20984;43.508;1.504;2022-07-29T02:21:59;10.60;;;3.33;;
34765;SDS011;20984;43.508;1.504;2022-07-29T02:24:27;4.88;;;2.88;;
34765;SDS011;20984;43.508;1.504;2022-07-29T02:26:55;4.60;;;2.65;;
34765;SDS011;20984;43.508;1.504;2022-07-29T02:29:23;8.20;;;2.45;;
34765;SDS011;20984;43.508;1.504;2022-07-29T02:31:51;4.82;;;2.45;;
34765;SDS011;20984;43.508;1.504;2022-07-29T02:34:19;5.18;;;2.63;;
34765;SDS011;20984;43.508;1.504;2022-07-29T02:36:46;7.05;;;2.83;;
34765;SDS011;20984;43.508;1.504;2022-07-29T02:39:13;5.50;;;2.30;;
34765;SDS011;20984;43.508;1.504;2022-07-29T02:41:42;6.18;;;2.47;;
34765;SDS011;20984;43.508;1.504;2022-07-29T02:44:14;7.03;;;2.70;;
34765;SDS011;20984;43.508;1.504;2022-07-29T02:46:59;5.25;;;3.00;;
34765;SDS011;20984;43.508;1.504;2022-07-29T02:49:34;8.13;;;2.42;;
34765;SDS011;20984;43.508;1.504;2022-07-29T02:52:08;3.72;;;2.20;;
34765;SDS011;20984;43.508;1.504;2022-07-29T02:57:22;5.65;;;2.22;;
34765;SDS011;20984;43.508;1.504;2022-07-29T03:00:00;8.02;;;2.67;;
34765;SDS011;20984;43.508;1.504;2022-07-29T03:02:31;6.15;;;1.90;;
34765;SDS011;20984;43.508;1.504;2022-07-29T03:05:15;4.07;;;2.30;;
34765;SDS011;20984;43.508;1.504;2022-07-29T03:07:45;5.40;;;2.28;;
34765;SDS011;20984;43.508;1.504;2022-07-29T03:10:14;7.78;;;2.17;;
34765;SDS011;20984;43.508;1.504;2022-07-29T03:12:41;6.35;;;2.20;;
34765;SDS011;20984;43.508;1.504;2022-07-29T03:15:07;7.90;;;2.85;;
34765;SDS011;20984;43.508;1.504;2022-07-29T03:17:34;5.97;;;2.15;;
34765;SDS011;20984;43.508;1.504;2022-07-29T03:20:01;6.97;;;2.85;;
34765;SDS011;20984;43.508;1.504;2022-07-29T03:22:27;5.88;;;2.42;;
34765;SDS011;20984;43.508;1.504;2022-07-29T03:24:53;5.50;;;2.35;;
34765;SDS011;20984;43.508;1.504;2022-07-29T03:27:19;6.93;;;2.83;;
34765;SDS011;20984;43.508;1.504;2022-07-29T03:29:45;6.10;;;2.08;;
34765;SDS011;20984;43.508;1.504;2022-07-29T03:32:11;5.32;;;2.47;;
34765;SDS011;20984;43.508;1.504;2022-07-29T03:34:37;8.25;;;3.13;;
34765;SDS011;20984;43.508;1.504;2022-07-29T03:37:03;6.82;;;2.42;;
34765;SDS011;20984;43.508;1.504;2022-07-29T03:39:31;8.73;;;2.40;;
34765;SDS011;20984;43.508;1.504;2022-07-29T03:44:28;7.32;;;2.60;;
34765;SDS011;20984;43.508;1.504;2022-07-29T03:46:57;6.25;;;2.38;;
34765;SDS011;20984;43.508;1.504;2022-07-29T03:49:26;5.80;;;2.10;;
34765;SDS011;20984;43.508;1.504;2022-07-29T03:51:53;6.50;;;2.55;;
34765;SDS011;20984;43.508;1.504;2022-07-29T03:54:19;4.07;;;2.28;;
34765;SDS011;20984;43.508;1.504;2022-07-29T03:56:45;6.68;;;2.53;;
34765;SDS011;20984;43.508;1.504;2022-07-29T03:59:13;3.25;;;2.08;;
34765;SDS011;20984;43.508;1.504;2022-07-29T04:01:41;7.82;;;2.67;;
34765;SDS011;20984;43.508;1.504;2022-07-29T04:04:08;4.85;;;2.78;;
34765;SDS011;20984;43.508;1.504;2022-07-29T04:06:37;5.13;;;3.13;;
34765;SDS011;20984;43.508;1.504;2022-07-29T04:09:04;9.60;;;3.67;;
34765;SDS011;20984;43.508;1.504;2022-07-29T04:11:30;8.80;;;3.08;;
34765;SDS011;20984;43.508;1.504;2022-07-29T04:13:56;7.68;;;3.55;;
34765;SDS011;20984;43.508;1.504;2022-07-29T04:16:22;3.70;;;2.78;;
34765;SDS011;20984;43.508;1.504;2022-07-29T04:18:48;11.20;;;3.08;;
34765;SDS011;20984;43.508;1.504;2022-07-29T04:21:14;6.97;;;2.70;;
34765;SDS011;20984;43.508;1.504;2022-07-29T04:23:40;6.00;;;2.63;;
34765;SDS011;20984;43.508;1.504;2022-07-29T04:26:06;7.25;;;2.78;;
34765;SDS011;20984;43.508;1.504;2022-07-29T04:28:34;4.03;;;2.60;;
34765;SDS011;20984;43.508;1.504;2022-07-29T04:31:00;4.38;;;2.45;;
34765;SDS011;20984;43.508;1.504;2022-07-29T04:33:26;2.85;;;2.42;;
34765;SDS011;20984;43.508;1.504;2022-07-29T04:35:52;4.95;;;2.78;;
34765;SDS011;20984;43.508;1.504;2022-07-29T04:38:18;3.70;;;2.50;;
34765;SDS011;20984;43.508;1.504;2022-07-29T04:40:44;3.95;;;3.13;;
34765;SDS011;20984;43.508;1.504;2022-07-29T04:43:10;5.20;;;3.08;;
34765;SDS011;20984;43.508;1.504;2022-07-29T04:45:35;6.15;;;3.35;;
34765;SDS011;20984;43.508;1.504;2022-07-29T04:48:01;6.22;;;2.90;;
34765;SDS011;20984;43.508;1.504;2022-07-29T04:50:27;5.68;;;2.65;;
34765;SDS011;20984;43.508;1.504;2022-07-29T04:52:53;5.25;;;2.88;;
34765;SDS011;20984;43.508;1.504;2022-07-29T04:55:19;6.22;;;2.65;;
34765;SDS011;20984;43.508;1.504;2022-07-29T04:57:45;5.35;;;3.30;;
34765;SDS011;20984;43.508;1.504;2022-07-29T05:00:11;6.20;;;2.90;;
34765;SDS011;20984;43.508;1.504;2022-07-29T05:02:37;3.75;;;2.67;;
34765;SDS011;20984;43.508;1.504;2022-07-29T05:05:03;9.45;;;2.90;;
34765;SDS011;20984;43.508;1.504;2022-07-29T05:07:29;6.80;;;2.75;;
34765;SDS011;20984;43.508;1.504;2022-07-29T05:09:55;6.20;;;3.17;;
34765;SDS011;20984;43.508;1.504;2022-07-29T05:12:22;6.90;;;2.95;;
34765;SDS011;20984;43.508;1.504;2022-07-29T05:14:48;4.25;;;3.25;;
34765;SDS011;20984;43.508;1.504;2022-07-29T05:17:14;8.32;;;4.00;;
34765;SDS011;20984;43.508;1.504;2022-07-29T05:19:40;7.35;;;3.33;;
34765;SDS011;20984;43.508;1.504;2022-07-29T05:22:06;8.45;;;3.35;;
34765;SDS011;20984;43.508;1.504;2022-07-29T05:24:32;9.52;;;3.67;;
34765;SDS011;20984;43.508;1.504;2022-07-29T05:26:57;7.90;;;3.65;;
34765;SDS011;20984;43.508;1.504;2022-07-29T05:29:23;7.88;;;3.55;;
34765;SDS011;20984;43.508;1.504;2022-07-29T05:31:49;7.47;;;3.42;;
34765;SDS011;20984;43.508;1.504;2022-07-29T05:34:16;8.13;;;3.15;;
34765;SDS011;20984;43.508;1.504;2022-07-29T05:36:43;7.97;;;3.40;;
34765;SDS011;20984;43.508;1.504;2022-07-29T05:39:10;11.07;;;3.72;;
34765;SDS011;20984;43.508;1.504;2022-07-29T05:41:37;14.68;;;4.10;;
34765;SDS011;20984;43.508;1.504;2022-07-29T05:44:04;4.20;;;3.25;;
34765;SDS011;20984;43.508;1.504;2022-07-29T05:46:29;7.95;;;3.05;;
34765;SDS011;20984;43.508;1.504;2022-07-29T05:48:55;5.47;;;3.22;;
34765;SDS011;20984;43.508;1.504;2022-07-29T05:51:21;5.07;;;3.00;;
34765;SDS011;20984;43.508;1.504;2022-07-29T05:53:47;8.73;;;3.78;;
34765;SDS011;20984;43.508;1.504;2022-07-29T05:56:13;7.55;;;3.63;;
34765;SDS011;20984;43.508;1.504;2022-07-29T05:58:39;6.28;;;3.40;;
34765;SDS011;20984;43.508;1.504;2022-07-29T06:01:05;6.38;;;3.72;;
34765;SDS011;20984;43.508;1.504;2022-07-29T06:03:30;5.22;;;3.55;;
34765;SDS011;20984;43.508;1.504;2022-07-29T06:05:56;4.55;;;3.45;;
34765;SDS011;20984;43.508;1.504;2022-07-29T06:08:23;5.65;;;4.00;;
34765;SDS011;20984;43.508;1.504;2022-07-29T06:10:48;5.10;;;3.28;;
34765;SDS011;20984;43.508;1.504;2022-07-29T06:13:14;7.40;;;3.85;;
34765;SDS011;20984;43.508;1.504;2022-07-29T06:15:41;5.93;;;3.97;;
34765;SDS011;20984;43.508;1.504;2022-07-29T06:18:07;7.10;;;3.75;;
34765;SDS011;20984;43.508;1.504;2022-07-29T06:20:35;7.40;;;4.00;;
34765;SDS011;20984;43.508;1.504;2022-07-29T06:23:01;12.15;;;4.85;;
34765;SDS011;20984;43.508;1.504;2022-07-29T06:25:29;13.65;;;4.40;;
34765;SDS011;20984;43.508;1.504;2022-07-29T06:27:55;6.57;;;4.07;;
34765;SDS011;20984;43.508;1.504;2022-07-29T06:30:21;7.30;;;4.00;;
34765;SDS011;20984;43.508;1.504;2022-07-29T06:32:47;7.45;;;3.92;;
34765;SDS011;20984;43.508;1.504;2022-07-29T06:35:14;6.72;;;3.97;;
34765;SDS011;20984;43.508;1.504;2022-07-29T06:37:40;6.57;;;4.00;;
34765;SDS011;20984;43.508;1.504;2022-07-29T06:40:06;6.90;;;3.67;;
34765;SDS011;20984;43.508;1.504;2022-07-29T06:42:51;9.73;;;3.97;;
34765;SDS011;20984;43.508;1.504;2022-07-29T06:45:16;5.90;;;3.38;;
34765;SDS011;20984;43.508;1.504;2022-07-29T06:47:42;4.82;;;3.38;;
34765;SDS011;20984;43.508;1.504;2022-07-29T06:50:08;9.60;;;3.95;;
34765;SDS011;20984;43.508;1.504;2022-07-29T06:52:37;9.57;;;4.32;;
34765;SDS011;20984;43.508;1.504;2022-07-29T06:55:04;10.43;;;3.45;;
34765;SDS011;20984;43.508;1.504;2022-07-29T06:57:30;7.07;;;4.63;;
34765;SDS011;20984;43.508;1.504;2022-07-29T06:59:56;10.13;;;4.10;;
34765;SDS011;20984;43.508;1.504;2022-07-29T07:02:22;9.80;;;4.43;;
34765;SDS011;20984;43.508;1.504;2022-07-29T07:04:48;5.82;;;4.63;;
34765;SDS011;20984;43.508;1.504;2022-07-29T07:07:14;5.65;;;3.97;;
34765;SDS011;20984;43.508;1.504;2022-07-29T07:09:40;5.53;;;4.13;;
34765;SDS011;20984;43.508;1.504;2022-07-29T07:12:06;9.63;;;3.92;;
34765;SDS011;20984;43.508;1.504;2022-07-29T07:14:32;8.68;;;4.70;;
34765;SDS011;20984;43.508;1.504;2022-07-29T07:16:58;7.35;;;4.45;;
34765;SDS011;20984;43.508;1.504;2022-07-29T07:19:25;6.93;;;3.70;;
34765;SDS011;20984;43.508;1.504;2022-07-29T07:21:54;7.30;;;4.00;;
34765;SDS011;20984;43.508;1.504;2022-07-29T07:24:20;13.20;;;4.65;;
34765;SDS011;20984;43.508;1.504;2022-07-29T07:26:46;6.65;;;4.45;;
34765;SDS011;20984;43.508;1.504;2022-07-29T07:29:12;8.35;;;4.47;;
34765;SDS011;20984;43.508;1.504;2022-07-29T07:31:38;7.43;;;4.90;;
34765;SDS011;20984;43.508;1.504;2022-07-29T07:34:04;7.78;;;4.65;;
34765;SDS011;20984;43.508;1.504;2022-07-29T07:36:30;7.43;;;3.50;;
34765;SDS011;20984;43.508;1.504;2022-07-29T07:38:56;12.80;;;4.10;;
34765;SDS011;20984;43.508;1.504;2022-07-29T07:41:21;6.57;;;3.72;;
34765;SDS011;20984;43.508;1.504;2022-07-29T07:43:48;9.88;;;5.13;;
34765;SDS011;20984;43.508;1.504;2022-07-29T07:46:14;7.68;;;4.40;;
34765;SDS011;20984;43.508;1.504;2022-07-29T07:48:40;7.90;;;4.18;;
34765;SDS011;20984;43.508;1.504;2022-07-29T07:51:06;7.18;;;3.72;;
34765;SDS011;20984;43.508;1.504;2022-07-29T07:53:32;7.28;;;4.18;;
34765;SDS011;20984;43.508;1.504;2022-07-29T07:55:59;12.23;;;4.25;;
34765;SDS011;20984;43.508;1.504;2022-07-29T07:58:25;6.53;;;4.20;;
34765;SDS011;20984;43.508;1.504;2022-07-29T08:00:51;7.32;;;4.78;;
34765;SDS011;20984;43.508;1.504;2022-07-29T08:03:17;13.68;;;4.70;;
34765;SDS011;20984;43.508;1.504;2022-07-29T08:05:43;12.07;;;4.55;;
34765;SDS011;20984;43.508;1.504;2022-07-29T08:08:09;6.47;;;3.33;;
34765;SDS011;20984;43.508;1.504;2022-07-29T08:10:35;6.70;;;4.07;;
34765;SDS011;20984;43.508;1.504;2022-07-29T08:13:21;5.65;;;3.65;;
34765;SDS011;20984;43.508;1.504;2022-07-29T08:15:53;12.77;;;4.72;;
34765;SDS011;20984;43.508;1.504;2022-07-29T08:18:29;8.30;;;4.28;;
34765;SDS011;20984;43.508;1.504;2022-07-29T08:20:56;10.18;;;4.05;;
34765;SDS011;20984;43.508;1.504;2022-07-29T08:23:22;11.27;;;4.60;;
34765;SDS011;20984;43.508;1.504;2022-07-29T08:25:48;7.95;;;3.83;;
34765;SDS011;20984;43.508;1.504;2022-07-29T08:28:15;8.60;;;3.83;;
34765;SDS011;20984;43.508;1.504;2022-07-29T08:30:41;9.68;;;4.07;;
34765;SDS011;20984;43.508;1.504;2022-07-29T08:33:07;16.67;;;4.85;;
34765;SDS011;20984;43.508;1.504;2022-07-29T08:35:33;5.30;;;3.75;;
34765;SDS011;20984;43.508;1.504;2022-07-29T08:37:58;6.13;;;3.60;;
34765;SDS011;20984;43.508;1.504;2022-07-29T08:40:24;11.98;;;3.90;;
34765;SDS011;20984;43.508;1.504;2022-07-29T08:42:50;6.28;;;4.45;;
34765;SDS011;20984;43.508;1.504;2022-07-29T08:45:16;6.35;;;3.90;;
34765;SDS011;20984;43.508;1.504;2022-07-29T08:47:44;9.82;;;3.90;;
34765;SDS011;20984;43.508;1.504;2022-07-29T08:50:10;7.80;;;4.38;;
34765;SDS011;20984;43.508;1.504;2022-07-29T08:52:38;7.75;;;3.90;;
34765;SDS011;20984;43.508;1.504;2022-07-29T08:55:05;10.35;;;4.30;;
34765;SDS011;20984;43.508;1.504;2022-07-29T08:57:32;8.45;;;5.00;;
34765;SDS011;20984;43.508;1.504;2022-07-29T08:59:59;5.55;;;3.60;;
34765;SDS011;20984;43.508;1.504;2022-07-29T09:02:27;6.35;;;3.97;;
34765;SDS011;20984;43.508;1.504;2022-07-29T09:04:56;4.25;;;3.25;;
34765;SDS011;20984;43.508;1.504;2022-07-29T09:07:25;7.83;;;3.57;;
34765;SDS011;20984;43.508;1.504;2022-07-29T09:09:50;5.57;;;3.22;;
34765;SDS011;20984;43.508;1.504;2022-07-29T09:12:16;5.38;;;2.83;;
34765;SDS011;20984;43.508;1.504;2022-07-29T09:14:42;8.90;;;4.03;;
34765;SDS011;20984;43.508;1.504;2022-07-29T09:17:08;9.50;;;4.03;;
34765;SDS011;20984;43.508;1.504;2022-07-29T09:19:35;6.55;;;4.00;;
34765;SDS011;20984;43.508;1.504;2022-07-29T09:22:04;10.80;;;3.90;;
34765;SDS011;20984;43.508;1.504;2022-07-29T09:27:25;8.27;;;3.38;;
34765;SDS011;20984;43.508;1.504;2022-07-29T09:30:07;7.78;;;3.70;;
34765;SDS011;20984;43.508;1.504;2022-07-29T09:32:56;6.10;;;3.30;;
34765;SDS011;20984;43.508;1.504;2022-07-29T09:35:26;7.43;;;3.78;;
34765;SDS011;20984;43.508;1.504;2022-07-29T09:37:54;9.07;;;3.95;;
34765;SDS011;20984;43.508;1.504;2022-07-29T09:40:21;8.20;;;3.38;;
34765;SDS011;20984;43.508;1.504;2022-07-29T09:42:52;5.93;;;3.60;;
34765;SDS011;20984;43.508;1.504;2022-07-29T09:45:28;6.85;;;3.42;;
34765;SDS011;20984;43.508;1.504;2022-07-29T09:47:56;4.97;;;3.15;;
34765;SDS011;20984;43.508;1.504;2022-07-29T09:50:37;4.60;;;3.00;;
34765;SDS011;20984;43.508;1.504;2022-07-29T09:53:04;7.30;;;2.97;;
34765;SDS011;20984;43.508;1.504;2022-07-29T09:55:31;5.22;;;3.65;;
34765;SDS011;20984;43.508;1.504;2022-07-29T09:58:16;8.85;;;3.42;;
34765;SDS011;20984;43.508;1.504;2022-07-29T10:00:44;6.88;;;3.60;;
34765;SDS011;20984;43.508;1.504;2022-07-29T10:03:11;7.43;;;3.13;;
34765;SDS011;20984;43.508;1.504;2022-07-29T10:05:38;4.38;;;3.25;;
34765;SDS011;20984;43.508;1.504;2022-07-29T10:08:04;4.57;;;3.35;;
34765;SDS011;20984;43.508;1.504;2022-07-29T10:10:33;7.32;;;3.25;;
34765;SDS011;20984;43.508;1.504;2022-07-29T10:15:40;5.60;;;3.40;;
34765;SDS011;20984;43.508;1.504;2022-07-29T10:18:13;5.72;;;3.28;;
34765;SDS011;20984;43.508;1.504;2022-07-29T10:20:39;7.82;;;3.65;;
34765;SDS011;20984;43.508;1.504;2022-07-29T10:23:05;6.20;;;3.95;;
34765;SDS011;20984;43.508;1.504;2022-07-29T10:25:31;7.45;;;3.35;;
34765;SDS011;20984;43.508;1.504;2022-07-29T10:27:57;5.75;;;3.55;;
34765;SDS011;20984;43.508;1.504;2022-07-29T10:30:24;4.20;;;3.17;;
34765;SDS011;20984;43.508;1.504;2022-07-29T10:38:24;10.48;;;3.90;;
34765;SDS011;20984;43.508;1.504;2022-07-29T10:41:12;11.73;;;3.92;;
34765;SDS011;20984;43.508;1.504;2022-07-29T10:44:05;10.25;;;4.32;;
34765;SDS011;20984;43.508;1.504;2022-07-29T10:46:35;8.30;;;3.30;;
34765;SDS011;20984;43.508;1.504;2022-07-29T10:54:19;9.80;;;3.63;;
34765;SDS011;20984;43.508;1.504;2022-07-29T10:59:46;8.65;;;3.33;;
34765;SDS011;20984;43.508;1.504;2022-07-29T11:05:10;6.85;;;3.40;;
34765;SDS011;20984;43.508;1.504;2022-07-29T11:10:37;6.88;;;2.72;;
34765;SDS011;20984;43.508;1.504;2022-07-29T11:13:04;6.30;;;3.03;;
34765;SDS011;20984;43.508;1.504;2022-07-29T11:15:32;6.65;;;3.03;;
34765;SDS011;20984;43.508;1.504;2022-07-29T11:18:19;11.63;;;3.47;;
34765;SDS011;20984;43.508;1.504;2022-07-29T11:20:46;6.07;;;3.20;;
34765;SDS011;20984;43.508;1.504;2022-07-29T11:23:28;8.80;;;2.75;;
34765;SDS011;20984;43.508;1.504;2022-07-29T11:28:59;8.18;;;3.00;;
34765;SDS011;20984;43.508;1.504;2022-07-29T11:31:37;6.38;;;3.45;;
34765;SDS011;20984;43.508;1.504;2022-07-29T11:34:17;7.32;;;2.97;;
34765;SDS011;20984;43.508;1.504;2022-07-29T11:37:31;5.75;;;2.85;;
34765;SDS011;20984;43.508;1.504;2022-07-29T11:44:59;7.72;;;2.85;;
34765;SDS011;20984;43.508;1.504;2022-07-29T11:47:26;6.90;;;2.55;;
34765;SDS011;20984;43.508;1.504;2022-07-29T11:49:53;5.82;;;2.55;;
34765;SDS011;20984;43.508;1.504;2022-07-29T11:52:22;5.97;;;2.78;;
34765;SDS011;20984;43.508;1.504;2022-07-29T11:54:49;6.72;;;2.45;;
34765;SDS011;20984;43.508;1.504;2022-07-29T11:57:16;5.25;;;2.65;;
34765;SDS011;20984;43.508;1.504;2022-07-29T11:59:44;4.07;;;2.20;;
34765;SDS011;20984;43.508;1.504;2022-07-29T12:02:10;7.25;;;2.17;;
34765;SDS011;20984;43.508;1.504;2022-07-29T12:04:50;5.20;;;2.40;;
34765;SDS011;20984;43.508;1.504;2022-07-29T12:07:16;6.28;;;2.58;;
34765;SDS011;20984;43.508;1.504;2022-07-29T12:09:49;6.57;;;2.28;;
34765;SDS011;20984;43.508;1.504;2022-07-29T12:12:16;4.55;;;2.35;;
34765;SDS011;20984;43.508;1.504;2022-07-29T12:14:43;7.47;;;2.33;;
34765;SDS011;20984;43.508;1.504;2022-07-29T12:17:33;6.30;;;1.75;;
34765;SDS011;20984;43.508;1.504;2022-07-29T12:20:01;5.50;;;2.83;;
34765;SDS011;20984;43.508;1.504;2022-07-29T12:22:29;3.90;;;2.30;;
34765;SDS011;20984;43.508;1.504;2022-07-29T12:25:07;7.20;;;2.75;;
34765;SDS011;20984;43.508;1.504;2022-07-29T12:27:34;6.22;;;2.53;;
34765;SDS011;20984;43.508;1.504;2022-07-29T12:30:07;6.13;;;2.30;;
34765;SDS011;20984;43.508;1.504;2022-07-29T12:32:34;7.70;;;2.80;;
34765;SDS011;20984;43.508;1.504;2022-07-29T12:35:19;8.00;;;1.95;;
34765;SDS011;20984;43.508;1.504;2022-07-29T12:37:46;5.72;;;2.03;;
34765;SDS011;20984;43.508;1.504;2022-07-29T12:40:16;4.65;;;1.88;;
34765;SDS011;20984;43.508;1.504;2022-07-29T12:45:34;5.10;;;1.70;;
34765;SDS011;20984;43.508;1.504;2022-07-29T12:48:02;10.45;;;2.92;;
34765;SDS011;20984;43.508;1.504;2022-07-29T12:50:28;8.32;;;2.22;;
34765;SDS011;20984;43.508;1.504;2022-07-29T12:52:54;8.00;;;2.20;;
34765;SDS011;20984;43.508;1.504;2022-07-29T12:55:42;7.72;;;2.60;;
34765;SDS011;20984;43.508;1.504;2022-07-29T12:58:25;4.95;;;2.50;;
34765;SDS011;20984;43.508;1.504;2022-07-29T13:01:13;7.03;;;2.00;;
34765;SDS011;20984;43.508;1.504;2022-07-29T13:03:43;4.00;;;1.70;;
34765;SDS011;20984;43.508;1.504;2022-07-29T13:11:42;5.20;;;2.40;;
34765;SDS011;20984;43.508;1.504;2022-07-29T13:14:11;4.82;;;2.08;;
34765;SDS011;20984;43.508;1.504;2022-07-29T13:17:29;6.43;;;2.25;;
34765;SDS011;20984;43.508;1.504;2022-07-29T13:19:49;9.65;;;2.28;;
34765;SDS011;20984;43.508;1.504;2022-07-29T13:22:20;8.73;;;2.00;;
34765;SDS011;20984;43.508;1.504;2022-07-29T13:24:58;6.13;;;2.20;;
34765;SDS011;20984;43.508;1.504;2022-07-29T13:27:29;4.43;;;2.38;;
34765;SDS011;20984;43.508;1.504;2022-07-29T13:29:57;6.95;;;2.15;;
34765;SDS011;20984;43.508;1.504;2022-07-29T13:32:25;3.97;;;2.08;;
34765;SDS011;20984;43.508;1.504;2022-07-29T13:34:52;4.32;;;2.25;;
34765;SDS011;20984;43.508;1.504;2022-07-29T13:37:19;3.72;;;2.17;;
34765;SDS011;20984;43.508;1.504;2022-07-29T13:39:44;3.13;;;1.70;;
34765;SDS011;20984;43.508;1.504;2022-07-29T13:42:11;6.13;;;1.90;;
34765;SDS011;20984;43.508;1.504;2022-07-29T13:44:39;4.05;;;2.42;;
34765;SDS011;20984;43.508;1.504;2022-07-29T13:47:06;4.88;;;1.88;;
34765;SDS011;20984;43.508;1.504;2022-07-29T13:49:33;7.22;;;2.10;;
34765;SDS011;20984;43.508;1.504;2022-07-29T13:51:59;4.72;;;2.00;;
34765;SDS011;20984;43.508;1.504;2022-07-29T13:54:25;5.25;;;2.25;;
34765;SDS011;20984;43.508;1.504;2022-07-29T13:56:51;3.33;;;1.98;;
34765;SDS011;20984;43.508;1.504;2022-07-29T13:59:17;4.13;;;2.13;;
34765;SDS011;20984;43.508;1.504;2022-07-29T14:01:43;4.40;;;1.45;;
34765;SDS011;20984;43.508;1.504;2022-07-29T14:04:09;4.63;;;1.80;;
34765;SDS011;20984;43.508;1.504;2022-07-29T14:06:36;4.07;;;1.92;;
34765;SDS011;20984;43.508;1.504;2022-07-29T14:09:02;3.58;;;2.53;;
34765;SDS011;20984;43.508;1.504;2022-07-29T14:11:31;6.53;;;2.42;;
34765;SDS011;20984;43.508;1.504;2022-07-29T14:13:57;5.07;;;2.60;;
34765;SDS011;20984;43.508;1.504;2022-07-29T14:16:23;6.53;;;2.63;;
34765;SDS011;20984;43.508;1.504;2022-07-29T14:18:49;6.75;;;2.22;;
34765;SDS011;20984;43.508;1.504;2022-07-29T14:21:15;4.00;;;2.42;;
34765;SDS011;20984;43.508;1.504;2022-07-29T14:23:40;5.18;;;2.50;;
34765;SDS011;20984;43.508;1.504;2022-07-29T14:26:07;4.68;;;2.25;;
34765;SDS011;20984;43.508;1.504;2022-07-29T14:28:33;3.85;;;2.53;;
34765;SDS011;20984;43.508;1.504;2022-07-29T14:30:58;10.07;;;2.47;;
34765;SDS011;20984;43.508;1.504;2022-07-29T14:33:24;4.72;;;2.70;;
34765;SDS011;20984;43.508;1.504;2022-07-29T14:35:50;5.30;;;1.98;;
34765;SDS011;20984;43.508;1.504;2022-07-29T14:38:16;4.85;;;2.47;;
34765;SDS011;20984;43.508;1.504;2022-07-29T14:40:42;4.70;;;2.75;;
34765;SDS011;20984;43.508;1.504;2022-07-29T14:43:07;8.93;;;2.63;;
34765;SDS011;20984;43.508;1.504;2022-07-29T14:45:33;8.13;;;2.60;;
34765;SDS011;20984;43.508;1.504;2022-07-29T14:47:59;2.33;;;1.63;;
34765;SDS011;20984;43.508;1.504;2022-07-29T14:50:25;6.90;;;2.42;;
34765;SDS011;20984;43.508;1.504;2022-07-29T14:52:51;10.70;;;3.17;;
34765;SDS011;20984;43.508;1.504;2022-07-29T14:55:17;3.45;;;2.40;;
34765;SDS011;20984;43.508;1.504;2022-07-29T14:57:43;4.32;;;2.20;;
34765;SDS011;20984;43.508;1.504;2022-07-29T15:00:09;4.93;;;1.90;;
34765;SDS011;20984;43.508;1.504;2022-07-29T15:02:36;9.95;;;2.33;;
34765;SDS011;20984;43.508;1.504;2022-07-29T15:05:02;5.57;;;1.98;;
34765;SDS011;20984;43.508;1.504;2022-07-29T15:07:28;6.78;;;2.47;;
34765;SDS011;20984;43.508;1.504;2022-07-29T15:09:54;9.95;;;2.30;;
34765;SDS011;20984;43.508;1.504;2022-07-29T15:12:20;3.88;;;1.85;;
34765;SDS011;20984;43.508;1.504;2022-07-29T15:14:46;3.90;;;1.55;;
34765;SDS011;20984;43.508;1.504;2022-07-29T15:17:12;2.83;;;1.50;;
34765;SDS011;20984;43.508;1.504;2022-07-29T15:19:38;6.78;;;1.52;;
34765;SDS011;20984;43.508;1.504;2022-07-29T15:22:03;4.38;;;1.67;;
34765;SDS011;20984;43.508;1.504;2022-07-29T15:24:29;3.53;;;1.48;;
34765;SDS011;20984;43.508;1.504;2022-07-29T15:26:56;4.70;;;1.63;;
34765;SDS011;20984;43.508;1.504;2022-07-29T15:29:22;3.45;;;1.50;;
34765;SDS011;20984;43.508;1.504;2022-07-29T15:31:48;6.10;;;1.83;;
34765;SDS011;20984;43.508;1.504;2022-07-29T15:34:13;4.53;;;1.52;;
34765;SDS011;20984;43.508;1.504;2022-07-29T15:36:40;6.88;;;1.80;;
34765;SDS011;20984;43.508;1.504;2022-07-29T15:39:06;4.60;;;1.55;;
34765;SDS011;20984;43.508;1.504;2022-07-29T15:41:32;3.17;;;1.65;;
34765;SDS011;20984;43.508;1.504;2022-07-29T15:43:58;3.40;;;1.58;;
34765;SDS011;20984;43.508;1.504;2022-07-29T15:46:24;5.47;;;1.90;;
34765;SDS011;20984;43.508;1.504;2022-07-29T15:49:09;3.15;;;1.50;;